sensor_id;sensor_type;location;lat;lon;timestamp;P1;durP1;ratioP1;P2;durP2;ratioP2
76745;SDS011;65671;49.976;20.038;2023-06-04T00:02:08;10.23;;;4.00;;
76745;SDS011;65671;49.976;20.038;2023-06-04T00:04:35;7.32;;;3.55;;
76745;SDS011;65671;49.976;20.038;2023-06-04T00:07:01;7.07;;;3.38;;
76745;SDS011;65671;49.976;20.038;2023-06-04T00:09:26;8.32;;;4.32;;
76745;SDS011;65671;49.976;20.038;2023-06-04T00:11:52;8.98;;;3.72;;
76745;SDS011;65671;49.976;20.038;2023-06-04T00:14:17;6.80;;;3.47;;
76745;SDS011;65671;49.976;20.038;2023-06-04T00:16:43;6.22;;;4.13;;
76745;SDS011;65671;49.976;20.038;2023-06-04T00:19:09;6.72;;;3.08;;
76745;SDS011;65671;49.976;20.038;2023-06-04T00:21:34;7.82;;;3.70;;
76745;SDS011;65671;49.976;20.038;2023-06-04T00:24:00;6.75;;;3.38;;
76745;SDS011;65671;49.976;20.038;2023-06-04T00:26:26;6.75;;;3.40;;
76745;SDS011;65671;49.976;20.038;2023-06-04T00:28:54;5.85;;;3.17;;
76745;SDS011;65671;49.976;20.038;2023-06-04T00:31:20;6.45;;;3.42;;
76745;SDS011;65671;49.976;20.038;2023-06-04T00:33:46;6.13;;;3.20;;
76745;SDS011;65671;49.976;20.038;2023-06-04T00:36:15;5.40;;;3.03;;
76745;SDS011;65671;49.976;20.038;2023-06-04T00:38:41;6.13;;;3.63;;
76745;SDS011;65671;49.976;20.038;2023-06-04T00:41:06;6.15;;;3.58;;
76745;SDS011;65671;49.976;20.038;2023-06-04T00:43:32;6.65;;;3.83;;
76745;SDS011;65671;49.976;20.038;2023-06-04T00:45:58;8.32;;;3.10;;
76745;SDS011;65671;49.976;20.038;2023-06-04T00:48:25;6.03;;;3.50;;
76745;SDS011;65671;49.976;20.038;2023-06-04T00:50:53;5.57;;;3.35;;
76745;SDS011;65671;49.976;20.038;2023-06-04T00:53:20;5.95;;;3.53;;
76745;SDS011;65671;49.976;20.038;2023-06-04T00:55:48;10.10;;;3.63;;
76745;SDS011;65671;49.976;20.038;2023-06-04T00:58:13;5.47;;;2.85;;
76745;SDS011;65671;49.976;20.038;2023-06-04T01:00:40;5.72;;;3.55;;
76745;SDS011;65671;49.976;20.038;2023-06-04T01:03:10;5.50;;;3.45;;
76745;SDS011;65671;49.976;20.038;2023-06-04T01:08:12;4.60;;;3.40;;
76745;SDS011;65671;49.976;20.038;2023-06-04T01:10:42;6.03;;;3.42;;
76745;SDS011;65671;49.976;20.038;2023-06-04T01:13:16;6.70;;;3.30;;
76745;SDS011;65671;49.976;20.038;2023-06-04T01:15:41;6.60;;;3.40;;
76745;SDS011;65671;49.976;20.038;2023-06-04T01:18:07;6.07;;;3.55;;
76745;SDS011;65671;49.976;20.038;2023-06-04T01:20:36;7.75;;;3.70;;
76745;SDS011;65671;49.976;20.038;2023-06-04T01:28:05;11.45;;;3.92;;
76745;SDS011;65671;49.976;20.038;2023-06-04T01:30:32;7.05;;;4.25;;
76745;SDS011;65671;49.976;20.038;2023-06-04T01:33:00;6.05;;;3.42;;
76745;SDS011;65671;49.976;20.038;2023-06-04T01:35:28;8.38;;;3.67;;
76745;SDS011;65671;49.976;20.038;2023-06-04T01:37:56;6.85;;;3.83;;
76745;SDS011;65671;49.976;20.038;2023-06-04T01:40:23;8.68;;;3.88;;
76745;SDS011;65671;49.976;20.038;2023-06-04T01:42:50;8.73;;;3.95;;
76745;SDS011;65671;49.976;20.038;2023-06-04T01:45:15;5.68;;;3.40;;
76745;SDS011;65671;49.976;20.038;2023-06-04T01:47:41;9.73;;;3.53;;
76745;SDS011;65671;49.976;20.038;2023-06-04T01:50:06;5.85;;;3.58;;
76745;SDS011;65671;49.976;20.038;2023-06-04T01:52:34;7.68;;;3.72;;
76745;SDS011;65671;49.976;20.038;2023-06-04T01:55:02;7.70;;;4.15;;
76745;SDS011;65671;49.976;20.038;2023-06-04T01:57:32;6.70;;;3.85;;
76745;SDS011;65671;49.976;20.038;2023-06-04T01:59:58;8.02;;;3.95;;
76745;SDS011;65671;49.976;20.038;2023-06-04T02:02:24;7.53;;;4.47;;
76745;SDS011;65671;49.976;20.038;2023-06-04T02:04:50;6.15;;;3.70;;
76745;SDS011;65671;49.976;20.038;2023-06-04T02:07:18;7.60;;;4.25;;
76745;SDS011;65671;49.976;20.038;2023-06-04T02:09:47;8.40;;;4.03;;
76745;SDS011;65671;49.976;20.038;2023-06-04T02:12:13;6.00;;;3.30;;
76745;SDS011;65671;49.976;20.038;2023-06-04T02:14:38;10.07;;;4.35;;
76745;SDS011;65671;49.976;20.038;2023-06-04T02:17:04;7.38;;;4.00;;
76745;SDS011;65671;49.976;20.038;2023-06-04T02:19:38;5.90;;;3.47;;
76745;SDS011;65671;49.976;20.038;2023-06-04T02:22:05;9.43;;;4.07;;
76745;SDS011;65671;49.976;20.038;2023-06-04T02:24:31;6.18;;;4.03;;
76745;SDS011;65671;49.976;20.038;2023-06-04T02:26:57;7.10;;;3.88;;
76745;SDS011;65671;49.976;20.038;2023-06-04T02:29:23;6.03;;;4.30;;
76745;SDS011;65671;49.976;20.038;2023-06-04T02:31:48;7.53;;;4.43;;
76745;SDS011;65671;49.976;20.038;2023-06-04T02:34:14;6.75;;;3.53;;
76745;SDS011;65671;49.976;20.038;2023-06-04T02:36:39;8.25;;;4.30;;
76745;SDS011;65671;49.976;20.038;2023-06-04T02:39:04;7.13;;;4.32;;
76745;SDS011;65671;49.976;20.038;2023-06-04T02:41:30;6.80;;;3.63;;
76745;SDS011;65671;49.976;20.038;2023-06-04T02:43:56;8.43;;;4.65;;
76745;SDS011;65671;49.976;20.038;2023-06-04T02:46:21;8.85;;;4.40;;
76745;SDS011;65671;49.976;20.038;2023-06-04T02:48:47;7.88;;;4.53;;
76745;SDS011;65671;49.976;20.038;2023-06-04T02:51:12;7.65;;;4.00;;
76745;SDS011;65671;49.976;20.038;2023-06-04T02:53:38;8.40;;;5.28;;
76745;SDS011;65671;49.976;20.038;2023-06-04T02:56:03;6.75;;;4.28;;
76745;SDS011;65671;49.976;20.038;2023-06-04T02:58:29;8.00;;;4.68;;
76745;SDS011;65671;49.976;20.038;2023-06-04T03:00:56;7.75;;;4.10;;
76745;SDS011;65671;49.976;20.038;2023-06-04T03:03:22;6.90;;;4.22;;
76745;SDS011;65671;49.976;20.038;2023-06-04T03:05:47;7.63;;;4.32;;
76745;SDS011;65671;49.976;20.038;2023-06-04T03:08:13;7.88;;;4.10;;
76745;SDS011;65671;49.976;20.038;2023-06-04T03:10:38;7.70;;;4.70;;
76745;SDS011;65671;49.976;20.038;2023-06-04T03:13:04;8.52;;;4.60;;
76745;SDS011;65671;49.976;20.038;2023-06-04T03:15:29;8.73;;;4.90;;
76745;SDS011;65671;49.976;20.038;2023-06-04T03:17:55;9.32;;;4.55;;
76745;SDS011;65671;49.976;20.038;2023-06-04T03:20:22;6.43;;;4.32;;
76745;SDS011;65671;49.976;20.038;2023-06-04T03:22:50;7.20;;;4.43;;
76745;SDS011;65671;49.976;20.038;2023-06-04T03:25:16;6.72;;;4.82;;
76745;SDS011;65671;49.976;20.038;2023-06-04T03:27:41;9.10;;;4.72;;
76745;SDS011;65671;49.976;20.038;2023-06-04T03:30:07;7.07;;;4.60;;
76745;SDS011;65671;49.976;20.038;2023-06-04T03:32:34;8.82;;;5.00;;
76745;SDS011;65671;49.976;20.038;2023-06-04T03:35:00;8.25;;;4.38;;
76745;SDS011;65671;49.976;20.038;2023-06-04T03:37:26;9.82;;;4.75;;
76745;SDS011;65671;49.976;20.038;2023-06-04T03:39:51;7.03;;;4.63;;
76745;SDS011;65671;49.976;20.038;2023-06-04T03:42:17;7.60;;;4.50;;
76745;SDS011;65671;49.976;20.038;2023-06-04T03:44:43;8.00;;;5.20;;
76745;SDS011;65671;49.976;20.038;2023-06-04T03:47:09;6.90;;;4.43;;
76745;SDS011;65671;49.976;20.038;2023-06-04T03:49:35;9.77;;;4.95;;
76745;SDS011;65671;49.976;20.038;2023-06-04T03:52:00;7.95;;;4.70;;
76745;SDS011;65671;49.976;20.038;2023-06-04T03:54:26;7.10;;;4.60;;
76745;SDS011;65671;49.976;20.038;2023-06-04T03:56:51;9.43;;;4.43;;
76745;SDS011;65671;49.976;20.038;2023-06-04T03:59:17;10.18;;;4.85;;
76745;SDS011;65671;49.976;20.038;2023-06-04T04:01:42;11.63;;;4.82;;
76745;SDS011;65671;49.976;20.038;2023-06-04T04:04:08;13.07;;;4.63;;
76745;SDS011;65671;49.976;20.038;2023-06-04T04:06:34;9.27;;;4.47;;
76745;SDS011;65671;49.976;20.038;2023-06-04T04:09:00;7.97;;;4.68;;
76745;SDS011;65671;49.976;20.038;2023-06-04T04:11:27;7.63;;;4.32;;
76745;SDS011;65671;49.976;20.038;2023-06-04T04:13:53;8.13;;;4.43;;
76745;SDS011;65671;49.976;20.038;2023-06-04T04:16:19;7.13;;;4.10;;
76745;SDS011;65671;49.976;20.038;2023-06-04T04:18:44;8.07;;;4.35;;
76745;SDS011;65671;49.976;20.038;2023-06-04T04:21:10;7.90;;;4.47;;
76745;SDS011;65671;49.976;20.038;2023-06-04T04:23:37;7.35;;;4.40;;
76745;SDS011;65671;49.976;20.038;2023-06-04T04:26:04;7.38;;;4.45;;
76745;SDS011;65671;49.976;20.038;2023-06-04T04:28:29;9.65;;;4.32;;
76745;SDS011;65671;49.976;20.038;2023-06-04T04:30:57;7.70;;;4.13;;
76745;SDS011;65671;49.976;20.038;2023-06-04T04:33:27;8.70;;;4.40;;
76745;SDS011;65671;49.976;20.038;2023-06-04T04:35:56;8.30;;;3.90;;
76745;SDS011;65671;49.976;20.038;2023-06-04T04:38:24;7.78;;;4.43;;
76745;SDS011;65671;49.976;20.038;2023-06-04T04:40:50;10.00;;;4.00;;
76745;SDS011;65671;49.976;20.038;2023-06-04T04:43:19;4.78;;;3.60;;
76745;SDS011;65671;49.976;20.038;2023-06-04T04:45:55;8.38;;;3.78;;
76745;SDS011;65671;49.976;20.038;2023-06-04T04:48:21;6.43;;;3.65;;
76745;SDS011;65671;49.976;20.038;2023-06-04T04:50:46;7.43;;;4.07;;
76745;SDS011;65671;49.976;20.038;2023-06-04T04:53:12;6.88;;;4.00;;
76745;SDS011;65671;49.976;20.038;2023-06-04T04:55:37;9.32;;;4.07;;
76745;SDS011;65671;49.976;20.038;2023-06-04T04:58:02;6.55;;;4.03;;
76745;SDS011;65671;49.976;20.038;2023-06-04T05:00:28;6.88;;;4.07;;
76745;SDS011;65671;49.976;20.038;2023-06-04T05:02:55;7.43;;;3.83;;
76745;SDS011;65671;49.976;20.038;2023-06-04T05:05:21;8.30;;;3.83;;
76745;SDS011;65671;49.976;20.038;2023-06-04T05:07:47;6.35;;;3.92;;
76745;SDS011;65671;49.976;20.038;2023-06-04T05:10:12;9.10;;;3.55;;
76745;SDS011;65671;49.976;20.038;2023-06-04T05:12:38;10.68;;;4.43;;
76745;SDS011;65671;49.976;20.038;2023-06-04T05:15:04;6.13;;;3.90;;
76745;SDS011;65671;49.976;20.038;2023-06-04T05:17:30;6.45;;;3.90;;
76745;SDS011;65671;49.976;20.038;2023-06-04T05:19:56;7.57;;;3.90;;
76745;SDS011;65671;49.976;20.038;2023-06-04T05:22:36;6.60;;;3.50;;
76745;SDS011;65671;49.976;20.038;2023-06-04T05:25:02;7.00;;;3.92;;
76745;SDS011;65671;49.976;20.038;2023-06-04T05:27:28;6.60;;;3.75;;
76745;SDS011;65671;49.976;20.038;2023-06-04T05:29:54;6.50;;;3.78;;
76745;SDS011;65671;49.976;20.038;2023-06-04T05:32:21;6.80;;;3.55;;
76745;SDS011;65671;49.976;20.038;2023-06-04T05:34:48;7.40;;;3.38;;
76745;SDS011;65671;49.976;20.038;2023-06-04T05:37:14;5.13;;;3.40;;
76745;SDS011;65671;49.976;20.038;2023-06-04T05:39:41;7.65;;;3.88;;
76745;SDS011;65671;49.976;20.038;2023-06-04T05:42:07;8.20;;;3.67;;
76745;SDS011;65671;49.976;20.038;2023-06-04T05:44:34;10.65;;;3.80;;
76745;SDS011;65671;49.976;20.038;2023-06-04T05:46:59;5.70;;;3.45;;
76745;SDS011;65671;49.976;20.038;2023-06-04T05:49:25;8.35;;;4.30;;
76745;SDS011;65671;49.976;20.038;2023-06-04T05:51:51;10.40;;;3.65;;
76745;SDS011;65671;49.976;20.038;2023-06-04T05:54:17;6.60;;;3.47;;
76745;SDS011;65671;49.976;20.038;2023-06-04T05:56:42;5.43;;;3.42;;
76745;SDS011;65671;49.976;20.038;2023-06-04T05:59:07;6.32;;;3.58;;
76745;SDS011;65671;49.976;20.038;2023-06-04T06:01:33;6.88;;;3.63;;
76745;SDS011;65671;49.976;20.038;2023-06-04T06:04:00;5.10;;;3.50;;
76745;SDS011;65671;49.976;20.038;2023-06-04T06:06:25;7.63;;;3.30;;
76745;SDS011;65671;49.976;20.038;2023-06-04T06:08:51;6.45;;;3.30;;
76745;SDS011;65671;49.976;20.038;2023-06-04T06:11:17;6.78;;;3.60;;
76745;SDS011;65671;49.976;20.038;2023-06-04T06:13:43;4.70;;;3.53;;
76745;SDS011;65671;49.976;20.038;2023-06-04T06:16:09;5.28;;;3.30;;
76745;SDS011;65671;49.976;20.038;2023-06-04T06:18:34;6.72;;;3.30;;
76745;SDS011;65671;49.976;20.038;2023-06-04T06:21:00;6.63;;;3.60;;
76745;SDS011;65671;49.976;20.038;2023-06-04T06:23:25;6.15;;;3.45;;
76745;SDS011;65671;49.976;20.038;2023-06-04T06:25:51;4.93;;;3.50;;
76745;SDS011;65671;49.976;20.038;2023-06-04T06:28:17;7.10;;;3.35;;
76745;SDS011;65671;49.976;20.038;2023-06-04T06:30:43;7.85;;;4.10;;
76745;SDS011;65671;49.976;20.038;2023-06-04T06:33:09;7.10;;;3.20;;
76745;SDS011;65671;49.976;20.038;2023-06-04T06:35:35;5.63;;;3.45;;
76745;SDS011;65671;49.976;20.038;2023-06-04T06:38:01;6.65;;;3.83;;
76745;SDS011;65671;49.976;20.038;2023-06-04T06:40:27;5.80;;;3.47;;
76745;SDS011;65671;49.976;20.038;2023-06-04T06:42:52;5.97;;;2.97;;
76745;SDS011;65671;49.976;20.038;2023-06-04T06:45:18;4.75;;;2.85;;
76745;SDS011;65671;49.976;20.038;2023-06-04T06:47:44;6.80;;;3.58;;
76745;SDS011;65671;49.976;20.038;2023-06-04T06:50:10;5.53;;;3.33;;
76745;SDS011;65671;49.976;20.038;2023-06-04T06:52:36;4.53;;;2.95;;
76745;SDS011;65671;49.976;20.038;2023-06-04T06:55:03;7.35;;;3.33;;
76745;SDS011;65671;49.976;20.038;2023-06-04T06:57:29;5.70;;;2.92;;
76745;SDS011;65671;49.976;20.038;2023-06-04T06:59:55;5.18;;;3.00;;
76745;SDS011;65671;49.976;20.038;2023-06-04T07:02:21;11.32;;;3.40;;
76745;SDS011;65671;49.976;20.038;2023-06-04T07:04:47;5.45;;;2.70;;
76745;SDS011;65671;49.976;20.038;2023-06-04T07:07:13;3.83;;;2.65;;
76745;SDS011;65671;49.976;20.038;2023-06-04T07:09:38;6.35;;;2.92;;
76745;SDS011;65671;49.976;20.038;2023-06-04T07:12:04;5.53;;;3.25;;
76745;SDS011;65671;49.976;20.038;2023-06-04T07:14:30;4.38;;;2.67;;
76745;SDS011;65671;49.976;20.038;2023-06-04T07:16:56;5.20;;;3.00;;
76745;SDS011;65671;49.976;20.038;2023-06-04T07:19:21;5.78;;;2.83;;
76745;SDS011;65671;49.976;20.038;2023-06-04T07:21:47;5.90;;;2.92;;
76745;SDS011;65671;49.976;20.038;2023-06-04T07:24:12;4.10;;;2.63;;
76745;SDS011;65671;49.976;20.038;2023-06-04T07:26:38;7.10;;;2.67;;
76745;SDS011;65671;49.976;20.038;2023-06-04T07:29:03;5.07;;;3.20;;
76745;SDS011;65671;49.976;20.038;2023-06-04T07:31:29;5.43;;;2.80;;
76745;SDS011;65671;49.976;20.038;2023-06-04T07:33:55;4.32;;;2.70;;
76745;SDS011;65671;49.976;20.038;2023-06-04T07:36:20;4.90;;;2.38;;
76745;SDS011;65671;49.976;20.038;2023-06-04T07:38:46;6.60;;;2.65;;
76745;SDS011;65671;49.976;20.038;2023-06-04T07:41:11;4.57;;;2.45;;
76745;SDS011;65671;49.976;20.038;2023-06-04T07:43:37;3.10;;;2.00;;
76745;SDS011;65671;49.976;20.038;2023-06-04T07:46:03;4.50;;;2.40;;
76745;SDS011;65671;49.976;20.038;2023-06-04T07:48:29;5.38;;;2.65;;
76745;SDS011;65671;49.976;20.038;2023-06-04T07:50:58;6.00;;;2.45;;
76745;SDS011;65671;49.976;20.038;2023-06-04T07:53:24;4.22;;;2.10;;
76745;SDS011;65671;49.976;20.038;2023-06-04T07:55:50;3.67;;;2.15;;
76745;SDS011;65671;49.976;20.038;2023-06-04T07:58:16;3.05;;;2.10;;
76745;SDS011;65671;49.976;20.038;2023-06-04T08:00:41;3.83;;;2.20;;
76745;SDS011;65671;49.976;20.038;2023-06-04T08:03:07;3.80;;;2.20;;
76745;SDS011;65671;49.976;20.038;2023-06-04T08:05:32;3.55;;;2.20;;
76745;SDS011;65671;49.976;20.038;2023-06-04T08:07:59;5.30;;;2.30;;
76745;SDS011;65671;49.976;20.038;2023-06-04T08:10:25;5.18;;;2.10;;
76745;SDS011;65671;49.976;20.038;2023-06-04T08:12:50;4.32;;;1.92;;
76745;SDS011;65671;49.976;20.038;2023-06-04T08:15:16;4.55;;;2.35;;
76745;SDS011;65671;49.976;20.038;2023-06-04T08:17:41;5.70;;;2.33;;
76745;SDS011;65671;49.976;20.038;2023-06-04T08:20:07;3.10;;;1.90;;
76745;SDS011;65671;49.976;20.038;2023-06-04T08:22:34;4.30;;;2.08;;
76745;SDS011;65671;49.976;20.038;2023-06-04T08:24:59;4.53;;;2.00;;
76745;SDS011;65671;49.976;20.038;2023-06-04T08:27:25;3.22;;;2.13;;
76745;SDS011;65671;49.976;20.038;2023-06-04T08:29:51;4.47;;;1.92;;
76745;SDS011;65671;49.976;20.038;2023-06-04T08:32:17;3.22;;;1.80;;
76745;SDS011;65671;49.976;20.038;2023-06-04T08:34:43;3.38;;;1.67;;
76745;SDS011;65671;49.976;20.038;2023-06-04T08:37:09;6.43;;;1.80;;
76745;SDS011;65671;49.976;20.038;2023-06-04T08:39:35;2.83;;;1.70;;
76745;SDS011;65671;49.976;20.038;2023-06-04T08:42:03;4.95;;;1.90;;
76745;SDS011;65671;49.976;20.038;2023-06-04T08:47:01;3.28;;;2.10;;
76745;SDS011;65671;49.976;20.038;2023-06-04T08:49:31;4.03;;;1.90;;
76745;SDS011;65671;49.976;20.038;2023-06-04T08:52:01;4.55;;;1.85;;
76745;SDS011;65671;49.976;20.038;2023-06-04T08:54:27;4.80;;;1.85;;
76745;SDS011;65671;49.976;20.038;2023-06-04T08:56:56;5.85;;;1.92;;
76745;SDS011;65671;49.976;20.038;2023-06-04T08:59:22;4.18;;;2.10;;
76745;SDS011;65671;49.976;20.038;2023-06-04T09:01:48;6.07;;;1.90;;
76745;SDS011;65671;49.976;20.038;2023-06-04T09:04:16;3.20;;;2.00;;
76745;SDS011;65671;49.976;20.038;2023-06-04T09:06:42;3.22;;;1.60;;
76745;SDS011;65671;49.976;20.038;2023-06-04T09:09:11;2.42;;;1.90;;
76745;SDS011;65671;49.976;20.038;2023-06-04T09:11:51;3.58;;;1.77;;
76745;SDS011;65671;49.976;20.038;2023-06-04T09:14:18;3.75;;;1.70;;
76745;SDS011;65671;49.976;20.038;2023-06-04T09:16:47;2.95;;;1.80;;
76745;SDS011;65671;49.976;20.038;2023-06-04T09:19:15;3.75;;;1.73;;
76745;SDS011;65671;49.976;20.038;2023-06-04T09:21:51;3.47;;;1.85;;
76745;SDS011;65671;49.976;20.038;2023-06-04T09:24:22;3.30;;;1.60;;
76745;SDS011;65671;49.976;20.038;2023-06-04T09:26:49;6.10;;;2.22;;
76745;SDS011;65671;49.976;20.038;2023-06-04T09:29:16;3.17;;;1.67;;
76745;SDS011;65671;49.976;20.038;2023-06-04T09:31:46;3.22;;;1.85;;
76745;SDS011;65671;49.976;20.038;2023-06-04T09:34:12;6.53;;;1.90;;
76745;SDS011;65671;49.976;20.038;2023-06-04T09:36:39;5.07;;;2.08;;
76745;SDS011;65671;49.976;20.038;2023-06-04T09:39:15;6.07;;;1.80;;
76745;SDS011;65671;49.976;20.038;2023-06-04T09:41:42;8.13;;;2.20;;
76745;SDS011;65671;49.976;20.038;2023-06-04T09:44:08;3.35;;;1.83;;
76745;SDS011;65671;49.976;20.038;2023-06-04T09:46:36;5.15;;;2.08;;
76745;SDS011;65671;49.976;20.038;2023-06-04T09:49:05;3.40;;;1.95;;
76745;SDS011;65671;49.976;20.038;2023-06-04T09:51:31;4.70;;;1.75;;
76745;SDS011;65671;49.976;20.038;2023-06-04T09:53:58;3.60;;;2.28;;
76745;SDS011;65671;49.976;20.038;2023-06-04T09:56:25;2.30;;;1.75;;
76745;SDS011;65671;49.976;20.038;2023-06-04T09:58:58;4.68;;;1.73;;
76745;SDS011;65671;49.976;20.038;2023-06-04T10:01:28;5.72;;;2.47;;
76745;SDS011;65671;49.976;20.038;2023-06-04T10:03:59;4.72;;;1.92;;
76745;SDS011;65671;49.976;20.038;2023-06-04T10:06:29;4.65;;;2.05;;
76745;SDS011;65671;49.976;20.038;2023-06-04T10:08:59;4.53;;;2.05;;
76745;SDS011;65671;49.976;20.038;2023-06-04T10:11:33;3.30;;;2.03;;
76745;SDS011;65671;49.976;20.038;2023-06-04T10:14:02;3.13;;;1.90;;
76745;SDS011;65671;49.976;20.038;2023-06-04T10:16:31;4.85;;;2.25;;
76745;SDS011;65671;49.976;20.038;2023-06-04T10:18:57;7.85;;;2.22;;
76745;SDS011;65671;49.976;20.038;2023-06-04T10:21:24;4.38;;;2.45;;
76745;SDS011;65671;49.976;20.038;2023-06-04T10:23:51;3.22;;;2.10;;
76745;SDS011;65671;49.976;20.038;2023-06-04T10:26:17;4.53;;;2.35;;
76745;SDS011;65671;49.976;20.038;2023-06-04T10:28:43;3.15;;;1.80;;
76745;SDS011;65671;49.976;20.038;2023-06-04T10:31:09;5.60;;;2.38;;
76745;SDS011;65671;49.976;20.038;2023-06-04T10:33:36;4.35;;;1.90;;
76745;SDS011;65671;49.976;20.038;2023-06-04T10:36:15;4.35;;;2.03;;
76745;SDS011;65671;49.976;20.038;2023-06-04T10:38:48;5.65;;;1.80;;
76745;SDS011;65671;49.976;20.038;2023-06-04T10:41:16;3.83;;;2.03;;
76745;SDS011;65671;49.976;20.038;2023-06-04T10:43:46;4.63;;;2.00;;
76745;SDS011;65671;49.976;20.038;2023-06-04T10:46:18;5.18;;;2.13;;
76745;SDS011;65671;49.976;20.038;2023-06-04T10:48:45;3.42;;;1.83;;
76745;SDS011;65671;49.976;20.038;2023-06-04T10:51:11;5.45;;;2.10;;
76745;SDS011;65671;49.976;20.038;2023-06-04T10:53:36;3.30;;;2.00;;
76745;SDS011;65671;49.976;20.038;2023-06-04T10:56:02;2.80;;;1.73;;
76745;SDS011;65671;49.976;20.038;2023-06-04T10:58:32;5.07;;;2.00;;
76745;SDS011;65671;49.976;20.038;2023-06-04T11:00:58;3.85;;;1.90;;
76745;SDS011;65671;49.976;20.038;2023-06-04T11:03:23;3.92;;;1.90;;
76745;SDS011;65671;49.976;20.038;2023-06-04T11:06:01;3.03;;;1.77;;
76745;SDS011;65671;49.976;20.038;2023-06-04T11:08:28;3.85;;;2.05;;
76745;SDS011;65671;49.976;20.038;2023-06-04T11:10:55;4.82;;;2.35;;
76745;SDS011;65671;49.976;20.038;2023-06-04T11:13:24;3.60;;;1.85;;
76745;SDS011;65671;49.976;20.038;2023-06-04T11:15:53;3.20;;;2.20;;
76745;SDS011;65671;49.976;20.038;2023-06-04T11:18:19;3.90;;;2.20;;
76745;SDS011;65671;49.976;20.038;2023-06-04T11:20:50;3.63;;;2.10;;
76745;SDS011;65671;49.976;20.038;2023-06-04T11:23:23;3.17;;;1.88;;
76745;SDS011;65671;49.976;20.038;2023-06-04T11:25:51;5.10;;;2.35;;
76745;SDS011;65671;49.976;20.038;2023-06-04T11:28:18;3.97;;;2.08;;
76745;SDS011;65671;49.976;20.038;2023-06-04T11:31:02;4.72;;;2.13;;
76745;SDS011;65671;49.976;20.038;2023-06-04T11:33:28;8.38;;;2.35;;
76745;SDS011;65671;49.976;20.038;2023-06-04T11:35:55;6.93;;;2.08;;
76745;SDS011;65671;49.976;20.038;2023-06-04T11:38:20;4.40;;;2.05;;
76745;SDS011;65671;49.976;20.038;2023-06-04T11:40:56;11.65;;;2.88;;
76745;SDS011;65671;49.976;20.038;2023-06-04T11:43:23;4.38;;;1.98;;
76745;SDS011;65671;49.976;20.038;2023-06-04T11:45:49;4.60;;;2.55;;
76745;SDS011;65671;49.976;20.038;2023-06-04T11:48:15;7.03;;;2.22;;
76745;SDS011;65671;49.976;20.038;2023-06-04T11:50:42;4.15;;;2.20;;
76745;SDS011;65671;49.976;20.038;2023-06-04T11:53:07;3.38;;;2.08;;
76745;SDS011;65671;49.976;20.038;2023-06-04T11:55:33;4.65;;;2.00;;
76745;SDS011;65671;49.976;20.038;2023-06-04T11:57:59;6.20;;;2.20;;
76745;SDS011;65671;49.976;20.038;2023-06-04T12:00:24;6.40;;;2.22;;
76745;SDS011;65671;49.976;20.038;2023-06-04T12:02:52;8.95;;;2.20;;
76745;SDS011;65671;49.976;20.038;2023-06-04T12:05:18;4.05;;;2.28;;
76745;SDS011;65671;49.976;20.038;2023-06-04T12:07:47;5.03;;;2.20;;
76745;SDS011;65671;49.976;20.038;2023-06-04T12:10:15;5.65;;;2.58;;
76745;SDS011;65671;49.976;20.038;2023-06-04T12:12:45;4.70;;;1.92;;
76745;SDS011;65671;49.976;20.038;2023-06-04T12:15:11;4.75;;;2.35;;
76745;SDS011;65671;49.976;20.038;2023-06-04T12:17:48;3.45;;;2.13;;
76745;SDS011;65671;49.976;20.038;2023-06-04T12:20:18;3.80;;;2.17;;
76745;SDS011;65671;49.976;20.038;2023-06-04T12:22:55;5.30;;;2.35;;
76745;SDS011;65671;49.976;20.038;2023-06-04T12:25:24;3.47;;;2.10;;
76745;SDS011;65671;49.976;20.038;2023-06-04T12:27:51;7.97;;;2.55;;
76745;SDS011;65671;49.976;20.038;2023-06-04T12:30:17;3.90;;;2.40;;
76745;SDS011;65671;49.976;20.038;2023-06-04T12:32:42;4.43;;;2.33;;
76745;SDS011;65671;49.976;20.038;2023-06-04T12:35:09;5.13;;;2.30;;
76745;SDS011;65671;49.976;20.038;2023-06-04T12:37:34;3.47;;;2.10;;
76745;SDS011;65671;49.976;20.038;2023-06-04T12:40:00;5.25;;;2.47;;
76745;SDS011;65671;49.976;20.038;2023-06-04T12:42:25;2.92;;;1.90;;
76745;SDS011;65671;49.976;20.038;2023-06-04T12:44:53;4.35;;;2.40;;
76745;SDS011;65671;49.976;20.038;2023-06-04T12:47:18;4.40;;;2.30;;
76745;SDS011;65671;49.976;20.038;2023-06-04T12:49:45;5.07;;;2.30;;
76745;SDS011;65671;49.976;20.038;2023-06-04T12:52:10;3.47;;;2.08;;
76745;SDS011;65671;49.976;20.038;2023-06-04T12:54:36;4.22;;;2.42;;
76745;SDS011;65671;49.976;20.038;2023-06-04T12:57:01;3.50;;;2.15;;
76745;SDS011;65671;49.976;20.038;2023-06-04T12:59:27;3.92;;;2.40;;
76745;SDS011;65671;49.976;20.038;2023-06-04T13:01:55;4.85;;;2.25;;
76745;SDS011;65671;49.976;20.038;2023-06-04T13:04:21;7.18;;;2.20;;
76745;SDS011;65671;49.976;20.038;2023-06-04T13:06:48;8.85;;;2.33;;
76745;SDS011;65671;49.976;20.038;2023-06-04T13:09:15;3.10;;;2.17;;
76745;SDS011;65671;49.976;20.038;2023-06-04T13:11:42;5.75;;;3.10;;
76745;SDS011;65671;49.976;20.038;2023-06-04T13:14:09;5.60;;;2.63;;
76745;SDS011;65671;49.976;20.038;2023-06-04T13:16:35;4.75;;;2.42;;
76745;SDS011;65671;49.976;20.038;2023-06-04T13:19:01;4.03;;;2.13;;
76745;SDS011;65671;49.976;20.038;2023-06-04T13:21:27;3.38;;;2.10;;
76745;SDS011;65671;49.976;20.038;2023-06-04T13:23:52;4.07;;;2.38;;
76745;SDS011;65671;49.976;20.038;2023-06-04T13:26:19;3.33;;;2.20;;
76745;SDS011;65671;49.976;20.038;2023-06-04T13:28:45;4.45;;;2.55;;
76745;SDS011;65671;49.976;20.038;2023-06-04T13:31:11;6.47;;;2.42;;
76745;SDS011;65671;49.976;20.038;2023-06-04T13:33:37;3.08;;;2.13;;
76745;SDS011;65671;49.976;20.038;2023-06-04T13:36:04;3.90;;;2.28;;
76745;SDS011;65671;49.976;20.038;2023-06-04T13:38:31;5.90;;;2.45;;
76745;SDS011;65671;49.976;20.038;2023-06-04T13:40:57;2.97;;;2.30;;
76745;SDS011;65671;49.976;20.038;2023-06-04T13:43:22;4.45;;;2.30;;
76745;SDS011;65671;49.976;20.038;2023-06-04T13:45:48;4.82;;;2.65;;
76745;SDS011;65671;49.976;20.038;2023-06-04T13:48:14;4.63;;;2.50;;
76745;SDS011;65671;49.976;20.038;2023-06-04T13:50:40;3.65;;;2.20;;
76745;SDS011;65671;49.976;20.038;2023-06-04T13:53:07;3.25;;;2.20;;
76745;SDS011;65671;49.976;20.038;2023-06-04T13:55:33;3.80;;;2.28;;
76745;SDS011;65671;49.976;20.038;2023-06-04T13:57:58;3.95;;;2.10;;
76745;SDS011;65671;49.976;20.038;2023-06-04T14:00:24;3.90;;;2.80;;
76745;SDS011;65671;49.976;20.038;2023-06-04T14:02:50;4.35;;;2.35;;
76745;SDS011;65671;49.976;20.038;2023-06-04T14:05:16;4.70;;;2.25;;
76745;SDS011;65671;49.976;20.038;2023-06-04T14:07:42;6.43;;;2.53;;
76745;SDS011;65671;49.976;20.038;2023-06-04T14:10:08;4.15;;;2.13;;
76745;SDS011;65671;49.976;20.038;2023-06-04T14:12:36;4.82;;;2.42;;
76745;SDS011;65671;49.976;20.038;2023-06-04T14:15:03;5.18;;;2.58;;
76745;SDS011;65671;49.976;20.038;2023-06-04T14:17:29;5.03;;;3.00;;
76745;SDS011;65671;49.976;20.038;2023-06-04T14:19:54;5.90;;;2.45;;
76745;SDS011;65671;49.976;20.038;2023-06-04T14:22:20;4.65;;;2.50;;
76745;SDS011;65671;49.976;20.038;2023-06-04T14:24:45;4.10;;;2.53;;
76745;SDS011;65671;49.976;20.038;2023-06-04T14:27:11;7.53;;;2.80;;
76745;SDS011;65671;49.976;20.038;2023-06-04T14:29:38;4.75;;;2.08;;
76745;SDS011;65671;49.976;20.038;2023-06-04T14:32:04;5.60;;;2.55;;
76745;SDS011;65671;49.976;20.038;2023-06-04T14:34:31;3.78;;;2.55;;
76745;SDS011;65671;49.976;20.038;2023-06-04T14:36:57;6.30;;;2.60;;
76745;SDS011;65671;49.976;20.038;2023-06-04T14:39:25;4.57;;;2.20;;
76745;SDS011;65671;49.976;20.038;2023-06-04T14:41:53;5.22;;;2.30;;